Aérodrome :
LOGIN :

S'inscrire | Disclaimer

   EN    FR    IT 

 










Légende :    VFR   VFR Marginal   IFR   IFR Intensif   IFR Très Intensif
Visi : 
Plafond : 
>= 8 km
>= 3000ft
5 à 8 km
1000 à 3000 ft
1500m à 5 km
500 à 1000 ft
800 à 1500m
200 à 500 ft
< 800m
< 200 ft
Symboles :   Orages  Brouillard  Fortes neiges  Fortes précipitations  Vent > 20 kt
SIGMETs :   Divers  Orages  Givrage  Turbulence  Onde Orograph.  Cendres Volcan.






- Altitude de l'aérodrome : 776 ft
- Code IATA : RMS


ETAR - Ramstein Air Base

DERNIER METAR :
  • 040956Z AUTO 00000KT 9999 CLR 20/11 A3001 RMK AO2 SLP161 T01960114 FZRANO $

METARs EXPIRÉS :
  • 040856Z 05004KT 9999 FEW100 SCT200 18/12 A3001 RMK AO2A RAB10E11DZB11E20 SLP161 P0000 60000 T01820124 52014 FZRANO $
  • 040820Z AUTO 03003KT 9999 FEW110 17/12 A3001 RMK AO2 RAB10E11DZB11E20 SLP162 FZRANO $
  • 040810Z AUTO 02005KT 9999 -RA FEW100 17/12 A3001 RMK AO2 RAB10 SLP162 FZRANO $
  • 040756Z AUTO 01005KT 9999 FEW110 17/13 A3001 RMK AO2 SLP162 T01740125 FZRANO $

TAF TAF ETAR
Valide du 04 à 10h jusqu'au 05 à 16h UTC


041000Z 0410/0516 02009KT 9999 FEW050 SCT070 620802 QNH3002INS
BECMG 0416/0417 VRB06KT 9999 BKN060 QNH3005INS
BECMG 0502/0503 VRB06KT 9999 SCT060 QNH3007INS
BECMG 0506/0507 25009KT 9999 FEW060 QNH3008INS TX24/0415Z TN10/0504Z



MET'MAP, la Météo Aéronautique d'un coup d'oeil ! - Copyright ORBIFLY Décembre 2007 - Disclaimer

ORBIFLY MET'MAP TEAM :

Programmation & Développement : Alexandra Zaïnal
Sur une idée originale de : Baudouin d'Aumeries
Assistance à la programmation : Marc-Olivier Méhu
Soutien technique & logistique : Manuel Goepfert

Contact : metmap@orbifly.com




SOURCES & CREDITS :

   NOAA